Data for 06/20/2009

Time Sea-Level Adjusted Pressure Absolute Pressure Temperature Relative Humidity Dew Point   
(mb) (inHg) (mb) (inHg) (C) (F) (%) (C) (F)
00:05 1012 29.88 842 24.86 12.6 54.8 87 10.6 51
00:10 1013 29.91 842 24.86 12.7 54.8 87 10.5 50.9
00:15 1013 29.91 842 24.86 12.7 54.8 87 10.5 50.9
00:20 1012 29.88 842 24.86 12.7 54.8 88 10.7 51.3
00:25 1013 29.91 842 24.86 12.6 54.7 88 10.6 51.1
00:30 1013 29.91 842 24.86 12.5 54.6 88 10.6 51
00:35 1013 29.91 842 24.86 12.6 54.7 88 10.7 51.2
00:40 1013 29.91 842 24.86 12.7 54.8 88 10.7 51.2
00:45 1013 29.91 842 24.86 12.6 54.7 88 10.6 51.1
00:50 1013 29.91 842 24.86 12.7 54.8 86 10.4 50.7
00:55 1013 29.91 842 24.86 12.8 55 86 10.5 50.9
01:00 1013 29.91 842 24.86 12.8 55 87 10.7 51.2
01:05 1013 29.91 842 24.86 12.7 54.8 86 10.3 50.6
01:10 1013 29.91 842 24.86 12.7 54.9 86 10.5 50.9
01:15 1013 29.91 842 24.86 12.7 54.8 89 10.9 51.7
01:20 1013 29.91 842 24.86 12.4 54.4 91 11.1 51.9
01:25 1013 29.91 843 24.89 12.3 54.2 92 11.1 52
01:30 1013 29.91 843 24.89 12.3 54.1 93 11.2 52.1
01:35 1013 29.91 843 24.89 12.2 54 93 11.2 52.1
01:40 1013 29.91 843 24.89 12.3 54.1 93 11.2 52.1
01:45 1013 29.91 843 24.89 12.2 53.9 94 11.2 52.2
01:50 1013 29.91 842 24.86 12.2 53.9 94 11.2 52.2
01:55 1013 29.91 842 24.86 12.2 53.9 94 11.2 52.1
02:00 1013 29.91 843 24.89 12.2 54 93 11.2 52.2
02:05 1013 29.91 843 24.89 12.2 54 93 11.2 52.1
02:10 1013 29.91 842 24.86 12.2 54 93 11.1 52
02:15 1013 29.91 842 24.86 12.3 54.1 92 11.1 52
02:20 1013 29.91 842 24.86 12.3 54.1 92 11.1 51.9
02:25 1013 29.91 842 24.86 12.2 54 91 10.7 51.3
02:30 1013 29.91 842 24.86 12.1 53.9 91 10.7 51.3
02:35 1013 29.91 842 24.86 12.1 53.7 90 10.6 51
02:40 1013 29.91 842 24.86 12 53.7 90 10.5 50.8
02:45 1013 29.91 842 24.86 12.1 53.8 90 10.4 50.8
02:50 1013 29.91 842 24.86 12.1 53.9 89 10.5 50.8
02:55 1013 29.91 842 24.86 12.2 53.9 89 10.3 50.6
03:00 1013 29.91 842 24.86 12 53.6 88 10.2 50.3
03:05 1013 29.91 842 24.86 11.9 53.3 89 10.1 50.3
03:10 1013 29.91 842 24.86 11.8 53.3 89 10.1 50.1
03:15 1013 29.91 842 24.86 11.8 53.2 89 10 50.1
03:20 1013 29.91 842 24.86 11.7 53.1 89 9.9 49.9
03:25 1013 29.91 842 24.86 11.7 53 88 9.8 49.6
03:30 1012 29.88 842 24.86 11.7 53.1 88 9.8 49.7
03:35 1012 29.88 842 24.86 11.7 53 89 9.8 49.7
03:40 1013 29.91 842 24.86 11.8 53.2 87 9.7 49.4
03:45 1012 29.88 842 24.86 11.8 53.2 87 9.7 49.5
03:50 1013 29.91 842 24.86 11.7 53.1 87 9.7 49.4
03:55 1012 29.88 842 24.86 11.6 52.9 87 9.6 49.3
04:00 1012 29.88 842 24.86 11.6 52.9 88 9.7 49.4
04:05 1012 29.88 842 24.86 11.6 52.9 87 9.6 49.2
04:10 1012 29.88 842 24.86 11.5 52.8 87 9.4 48.9
04:15 1012 29.88 842 24.86 11.4 52.4 87 9.3 48.8
04:20 1012 29.88 842 24.86 11.3 52.3 89 9.5 49.1
04:25 1012 29.88 842 24.86 11.3 52.4 88 9.4 48.9
04:30 1012 29.88 841 24.83 11.3 52.4 88 9.3 48.8
04:35 1012 29.88 841 24.83 11.3 52.3 88 9.4 48.9
04:40 1012 29.88 841 24.83 11.2 52.2 88 9.3 48.7
04:45 1012 29.88 841 24.83 11.3 52.3 88 9.4 48.9
04:50 1012 29.88 841 24.83 11.4 52.6 87 9.4 48.9
04:55 1012 29.88 841 24.83 11.5 52.7 87 9.4 48.9
05:00 1012 29.88 841 24.83 11.5 52.7 87 9.4 48.8
05:05 1012 29.88 841 24.83 11.5 52.7 87 9.4 49
05:10 1012 29.88 841 24.83 11.5 52.6 88 9.5 49.1
05:15 1012 29.88 841 24.83 11.5 52.7 87 9.4 48.9
05:20 1012 29.88 841 24.83 11.5 52.7 87 9.4 48.9
05:25 1012 29.88 841 24.83 11.5 52.7 86 9.3 48.7
05:30 1012 29.88 841 24.83 11.4 52.6 87 9.3 48.8
05:35 1013 29.91 842 24.86 11.5 52.6 87 9.4 49
05:40 1013 29.91 842 24.86 11.3 52.4 89 9.5 49.1
05:45 1013 29.91 842 24.86 11.2 52.2 89 9.4 48.9
05:50 1013 29.91 842 24.86 11.3 52.3 88 9.4 48.9
05:55 1013 29.91 842 24.86 11.3 52.4 88 9.4 48.9
06:00 1013 29.91 842 24.86 11.3 52.3 89 9.5 49
06:05 1013 29.91 842 24.86 11.2 52.2 90 9.6 49.2
06:10 1013 29.91 842 24.86 11 51.8 90 9.5 49
06:15 1013 29.91 842 24.86 11 51.8 90 9.4 48.9
06:20 1013 29.91 842 24.86 11 51.7 89 9.3 48.7
06:25 1013 29.91 842 24.86 11 51.8 90 9.5 49.1
06:30 1013 29.91 842 24.86 11 51.9 89 9.4 48.9
06:35 1013 29.91 842 24.86 11.2 52.2 89 9.4 49
06:40 1013 29.91 842 24.86 11.2 52.2 89 9.5 49.1
06:45 1013 29.91 842 24.86 11.1 52 89 9.3 48.8
06:50 1013 29.91 842 24.86 11.1 52 88 9.3 48.7
06:55 1013 29.91 842 24.86 11.3 52.3 87 9.2 48.6
07:00 1013 29.91 842 24.86 11.5 52.8 86 9.4 48.9
07:05 1013 29.91 842 24.86 11.7 53 86 9.5 49.1
07:10 1012 29.88 842 24.86 11.8 53.2 86 9.5 49
07:15 1013 29.91 842 24.86 11.8 53.2 86 9.5 49.1
07:20 1013 29.91 842 24.86 11.8 53.2 86 9.5 49
07:25 1013 29.91 842 24.86 11.8 53.3 84 9.2 48.5
07:30 1013 29.91 842 24.86 11.9 53.4 83 9.1 48.5
07:35 1013 29.91 842 24.86 11.9 53.5 84 9.3 48.8
07:40 1013 29.91 842 24.86 11.9 53.5 84 9.3 48.8
07:45 1013 29.91 842 24.86 11.8 53.3 85 9.3 48.8
07:50 1013 29.91 842 24.86 11.8 53.2 86 9.5 49
07:55 1013 29.91 842 24.86 11.8 53.2 85 9.4 48.9
08:00 1013 29.91 842 24.86 11.9 53.3 85 9.4 48.9
08:05 1013 29.91 842 24.86 11.9 53.3 84 9.3 48.7
08:10 1013 29.91 842 24.86 11.8 53.2 84 9.2 48.6
08:15 1013 29.91 842 24.86 11.9 53.5 84 9.3 48.7
08:20 1012 29.88 842 24.86 12.1 53.8 83 9.3 48.8
08:25 1012 29.88 842 24.86 12.3 54.1 82 9.4 48.9
08:30 1012 29.88 841 24.83 12.4 54.4 82 9.4 48.9
08:35 1012 29.88 841 24.83 12.7 54.9 80 9.3 48.8
08:40 1012 29.88 841 24.83 12.8 55.1 78 9.2 48.5
08:45 1012 29.88 841 24.83 13.1 55.5 78 9.3 48.8
08:50 1012 29.88 841 24.83 13.1 55.5 78 9.4 48.9
08:55 1012 29.88 841 24.83 13 55.5 79 9.4 48.9
09:00 1012 29.88 841 24.83 12.8 55 80 9.4 49
09:05 1012 29.88 841 24.83 13.1 55.6 78 9.4 49
09:10 1012 29.88 841 24.83 13.3 55.9 78 9.5 49
09:15 1012 29.88 841 24.83 13.3 55.9 77 9.5 49
09:20 1012 29.88 841 24.83 13.6 56.4 74 9.1 48.3
09:25 1012 29.88 841 24.83 13.8 56.9 74 9.4 48.9
09:30 1012 29.88 841 24.83 13.3 55.9 77 9.5 49
09:35 1012 29.88 841 24.83 13.4 56.2 74 9 48.2
09:40 1012 29.88 841 24.83 13.6 56.4 74 9.1 48.4
09:45 1012 29.88 841 24.83 13.7 56.6 74 9.1 48.5
09:50 1012 29.88 841 24.83 13.5 56.3 75 9.1 48.5
09:55 1012 29.88 841 24.83 13.7 56.7 74 9.2 48.6
10:00 1012 29.88 841 24.83 13.6 56.4 75 9.2 48.6
10:05 1012 29.88 841 24.83 14.1 57.3 72 9.2 48.6
10:10 1012 29.88 841 24.83 14.2 57.5 73 9.4 48.9
10:15 1012 29.88 841 24.83 14.4 57.9 72 9.5 49
10:20 1012 29.88 841 24.83 14.5 58 73 9.7 49.5
10:25 1012 29.88 841 24.83 14.4 57.9 72 9.5 49.1
10:30 1012 29.88 841 24.83 14.2 57.6 74 9.6 49.3
10:35 1012 29.88 841 24.83 14.3 57.7 75 10 49.9
10:40 1012 29.88 841 24.83 14.1 57.3 78 10.2 50.4
10:45 1012 29.88 841 24.83 13.4 56.1 77 9.4 49
10:50 1012 29.88 841 24.83 13.8 56.8 73 9.1 48.4
10:55 1012 29.88 841 24.83 13.8 56.8 75 9.5 49.1
11:00 1012 29.88 841 24.83 13.7 56.6 76 9.5 49.2
11:05 1012 29.88 841 24.83 13.6 56.4 80 10.2 50.3
11:10 1012 29.88 841 24.83 13.3 56 82 10.4 50.8
11:15 1012 29.88 841 24.83 13.3 56 81 10.1 50.2
11:20 1012 29.88 841 24.83 13.5 56.3 81 10.2 50.4
11:25 1012 29.88 841 24.83 13.5 56.2 81 10.3 50.5
11:30 1011 29.85 841 24.83 13.6 56.5 80 10.2 50.3
11:35 1011 29.85 841 24.83 13.8 56.8 78 10 50
11:40 1011 29.85 841 24.83 14 57.3 77 10.2 50.3
11:45 1011 29.85 841 24.83 14.8 58.6 74 10.3 50.6
11:50 1011 29.85 840 24.81 15.3 59.5 74 10.7 51.2
11:55 1011 29.85 841 24.83 14.8 58.7 73 10.1 50.2
12:00 1011 29.85 840 24.81 15 58.9 71 9.9 49.7
12:05 1011 29.85 841 24.83 15 59 71 9.9 49.8
12:10 1011 29.85 841 24.83 14.6 58.4 72 9.8 49.6
12:15 1011 29.85 840 24.81 15 59 70 9.6 49.4
12:20 1011 29.85 840 24.81 15.1 59.2 69 9.6 49.3
12:25 1011 29.85 840 24.81 14.7 58.4 71 9.5 49.1
12:30 1011 29.85 840 24.81 14.6 58.4 71 9.6 49.2
12:35 1011 29.85 840 24.81 14.8 58.6 68 9.1 48.4
12:40 1011 29.85 840 24.81 15.1 59.2 67 9.2 48.5
12:45 1011 29.85 840 24.81 15.1 59.2 68 9.3 48.8
12:50 1011 29.85 840 24.81 15 59.1 69 9.4 49
12:55 1011 29.85 840 24.81 15.2 59.3 67 9.2 48.6
13:00 1011 29.85 840 24.81 15.2 59.4 69 9.6 49.2
13:05 1011 29.85 840 24.81 15 59 70 9.7 49.4
13:10 1011 29.85 840 24.81 14.7 58.5 71 9.6 49.3
13:15 1011 29.85 840 24.81 14.3 57.7 72 9.3 48.8
13:20 1011 29.85 840 24.81 14.2 57.5 73 9.4 49
13:25 1011 29.85 840 24.81 14.2 57.6 73 9.5 49.2
13:30 1011 29.85 840 24.81 14 57.2 73 9.4 48.9
13:35 1011 29.85 840 24.81 14 57.2 73 9.3 48.7
13:40 1011 29.85 840 24.81 13.8 56.9 74 9.3 48.7
13:45 1011 29.85 840 24.81 13.7 56.7 74 9.2 48.6
13:50 1011 29.85 840 24.81 13.8 56.8 74 9.2 48.6
13:55 1011 29.85 840 24.81 13.7 56.6 74 9.1 48.4
14:00 1011 29.85 840 24.81 13.6 56.4 74 9 48.2
14:05 1011 29.85 840 24.81 13.5 56.3 73 8.9 48
14:10 1011 29.85 840 24.81 13.5 56.4 73 8.9 48
14:15 1011 29.85 840 24.81 13.6 56.5 73 8.9 48.1
14:20 1010 29.83 840 24.81 13.6 56.6 74 9.1 48.4
14:25 1010 29.83 840 24.81 13.7 56.7 73 9 48.2
14:30 1010 29.83 840 24.81 13.8 56.9 73 9.1 48.3
14:35 1010 29.83 840 24.81 13.6 56.4 73 8.9 47.9
14:40 1010 29.83 840 24.81 13.7 56.7 73 8.9 48.1
14:45 1010 29.83 840 24.81 13.9 57.1 73 9.2 48.6
14:50 1010 29.83 840 24.81 13.8 56.8 74 9.3 48.8
14:55 1010 29.83 840 24.81 13.6 56.5 75 9.3 48.8
15:00 1010 29.83 840 24.81 13.5 56.3 75 9.3 48.7
15:05 1010 29.83 840 24.81 13.3 56 76 9.1 48.5
15:10 1010 29.83 840 24.81 13.4 56 74 8.8 47.8
15:15 1010 29.83 840 24.81 13.4 56 75 9 48.2
15:20 1010 29.83 840 24.81 13.2 55.8 76 9.1 48.3
15:25 1010 29.83 840 24.81 13.1 55.5 75 8.7 47.6
15:30 1010 29.83 840 24.81 12.8 55 75 8.5 47.2
15:35 1010 29.83 840 24.81 12.5 54.6 77 8.7 47.7
15:40 1010 29.83 840 24.81 12.4 54.3 77 8.6 47.4
15:45 1010 29.83 840 24.81 12.2 54 76 8.1 46.6
15:50 1010 29.83 840 24.81 12.1 53.9 76 8.2 46.7
15:55 1010 29.83 840 24.81 12.2 53.9 78 8.5 47.3
16:00 1010 29.83 840 24.81 12.3 54.1 78 8.6 47.5
16:05 1010 29.83 839 24.78 12 53.7 82 9 48.2
16:10 1010 29.83 839 24.78 11.8 53.3 82 8.8 47.9
16:15 1010 29.83 839 24.78 11.6 52.9 83 8.8 47.9
16:20 1010 29.83 840 24.81 11.5 52.6 86 9.1 48.4
16:25 1010 29.83 840 24.81 11.3 52.3 89 9.5 49.1
16:30 1011 29.85 840 24.81 11.1 51.9 88 9.1 48.5
16:35 1011 29.85 840 24.81 10.8 51.5 91 9.4 48.9
16:40 1011 29.85 840 24.81 10.7 51.3 89 8.9 48.1
16:45 1011 29.85 840 24.81 10.6 51 89 8.8 47.9
16:50 1010 29.83 840 24.81 10.5 50.9 91 9.1 48.4
16:55 1010 29.83 840 24.81 10.5 50.8 90 8.9 48
17:00 1010 29.83 840 24.81 10.5 50.9 93 9.4 49
17:05 1010 29.83 840 24.81 11.4 52.4 87 9.2 48.6
17:10 1010 29.83 839 24.78 11.4 52.5 85 9 48.3
17:15 1010 29.83 840 24.81 11.7 53.1 85 9.4 48.8
17:20 1010 29.83 839 24.78 11.9 53.5 80 8.7 47.7
17:25 1010 29.83 839 24.78 12.4 54.3 81 9.2 48.6
17:30 1010 29.83 839 24.78 12.4 54.4 80 9.1 48.4
17:35 1010 29.83 839 24.78 11.9 53.5 84 9.2 48.6
17:40 1010 29.83 839 24.78 11.5 52.7 85 9.1 48.4
17:45 1010 29.83 840 24.81 11.4 52.6 82 8.5 47.3
17:50 1010 29.83 840 24.81 11.3 52.4 84 8.8 47.9
17:55 1010 29.83 840 24.81 11.5 52.7 84 9 48.1
18:00 1010 29.83 840 24.81 11.6 52.9 84 8.9 48.1
18:05 1010 29.83 840 24.81 11.4 52.6 84 8.8 47.9
18:10 1010 29.83 840 24.81 11.1 52 86 8.9 48.1
18:15 1010 29.83 840 24.81 11.1 51.9 86 8.7 47.7
18:20 1010 29.83 839 24.78 11.1 51.9 87 9 48.2
18:25 1010 29.83 839 24.78 11.2 52.2 86 9 48.1
18:30 1010 29.83 839 24.78 11.3 52.3 86 9.1 48.3
18:35 1010 29.83 839 24.78 11.4 52.5 86 9.1 48.3
18:40 1010 29.83 839 24.78 11.2 52.2 87 9.1 48.4
18:45 1010 29.83 839 24.78 10.8 51.5 87 8.8 47.9
18:50 1010 29.83 839 24.78 10.9 51.6 86 8.7 47.6
18:55 1010 29.83 839 24.78 11 51.8 85 8.7 47.6
19:00 1010 29.83 839 24.78 10.7 51.3 87 8.6 47.5
19:05 1010 29.83 839 24.78 10.7 51.3 87 8.6 47.5
19:10 1010 29.83 839 24.78 10.8 51.4 85 8.4 47.2
19:15 1010 29.83 839 24.78 10.6 51 87 8.6 47.4
19:20 1010 29.83 839 24.78 10.3 50.6 88 8.5 47.3
19:25 1010 29.83 839 24.78 10.3 50.6 88 8.4 47.1
19:30 1010 29.83 839 24.78 10.4 50.7 88 8.5 47.3
19:35 1010 29.83 839 24.78 10.2 50.4 89 8.5 47.4
19:40 1010 29.83 839 24.78 10.2 50.4 89 8.6 47.4
19:45 1010 29.83 839 24.78 10.3 50.5 90 8.7 47.6
19:50 1010 29.83 839 24.78 10.2 50.4 90 8.6 47.5
19:55 1010 29.83 839 24.78 10.2 50.3 90 8.6 47.4
20:00 1010 29.83 839 24.78 10.2 50.4 90 8.6 47.6
20:05 1010 29.83 839 24.78 10.3 50.5 90 8.7 47.7
20:10 1010 29.83 839 24.78 10.4 50.6 89 8.6 47.5
20:15 1010 29.83 839 24.78 10.3 50.5 89 8.5 47.3
20:20 1010 29.83 839 24.78 10.4 50.7 88 8.6 47.4
20:25 1010 29.83 839 24.78 10.4 50.8 89 8.7 47.6
20:30 1010 29.83 839 24.78 10.6 51.1 88 8.7 47.6
20:35 1010 29.83 839 24.78 10.7 51.3 88 8.8 47.9
20:40 1010 29.83 839 24.78 10.8 51.5 87 8.7 47.7
20:45 1010 29.83 839 24.78 10.7 51.2 87 8.6 47.4
20:50 1010 29.83 840 24.81 10.5 50.9 87 8.5 47.3
20:55 1010 29.83 839 24.78 10.4 50.6 89 8.6 47.6
21:00 1010 29.83 840 24.81 10.3 50.5 89 8.6 47.4
21:05 1010 29.83 840 24.81 10.2 50.4 89 8.5 47.2
21:10 1010 29.83 840 24.81 10.1 50.2 90 8.5 47.3
21:15 1010 29.83 840 24.81 10.2 50.3 89 8.4 47.2
21:20 1010 29.83 840 24.81 10.1 50.2 89 8.4 47.1
21:25 1010 29.83 840 24.81 10.1 50.2 90 8.5 47.3
21:30 1010 29.83 840 24.81 10.2 50.4 89 8.5 47.3
21:35 1010 29.83 840 24.81 10.2 50.4 89 8.5 47.4
21:40 1010 29.83 840 24.81 10.2 50.3 89 8.5 47.3
21:45 1010 29.83 840 24.81 10.2 50.4 90 8.6 47.5
21:50 1010 29.83 840 24.81 10.1 50.2 90 8.6 47.4
21:55 1011 29.85 840 24.81 10 50.1 90 8.6 47.4
22:00 1011 29.85 840 24.81 10.1 50.2 90 8.6 47.4
22:05 1011 29.85 840 24.81 10.2 50.4 89 8.5 47.3
22:10 1011 29.85 840 24.81 10.2 50.4 89 8.5 47.3
22:15 1011 29.85 840 24.81 10.3 50.5 88 8.4 47.2
22:20 1011 29.85 840 24.81 10.2 50.4 88 8.4 47.1
22:25 1011 29.85 840 24.81 10.4 50.7 89 8.6 47.6
22:30 1011 29.85 840 24.81 10.5 50.8 89 8.7 47.6
22:35 1011 29.85 840 24.81 10.4 50.7 89 8.7 47.7
22:40 1011 29.85 840 24.81 10.4 50.7 90 8.7 47.7
22:45 1011 29.85 840 24.81 10.4 50.7 89 8.7 47.7
22:50 1011 29.85 840 24.81 10.4 50.7 90 8.8 47.8
22:55 1011 29.85 840 24.81 10.4 50.7 90 8.8 47.8
23:00 1011 29.85 840 24.81 10.4 50.6 90 8.8 47.8
23:05 1011 29.85 840 24.81 10.5 50.9 89 8.8 47.8
23:10 1011 29.85 840 24.81 10.5 50.8 89 8.8 47.8
23:15 1011 29.85 840 24.81 10.5 50.8 90 8.8 47.9
23:20 1011 29.85 840 24.81 10.5 50.8 89 8.7 47.7
23:25 1010 29.83 840 24.81 10.5 50.9 89 8.8 47.9
23:30 1010 29.83 840 24.81 10.6 51.1 89 8.8 47.8
23:35 1010 29.83 840 24.81 10.7 51.2 89 8.9 48
23:40 1010 29.83 840 24.81 10.7 51.2 89 8.9 47.9
23:45 1010 29.83 840 24.81 10.6 51.1 89 8.9 48
23:50 1010 29.83 840 24.81 10.5 50.9 89 8.8 47.9
23:55 1010 29.83 839 24.78 10.5 50.9 89 8.8 47.9
24:00 1010 29.83 839 24.78 10.6 51 88 8.7 47.7